»·PEaware :: N458JB KSAN-KPSP

N458JB :: KSAN-KPSP

FLIGHT INFORMATION

Flight Status: Arrived
Operator: Privately registered:
United States
More flights under this callsign
Pilot: Jordan V. (27588)
Aircraft: SOCATA TBM-900
(TBM9)
More flights by this aircraft type
Origin: KSAN San Diego Intl-Lindbergh
United States
Destination: KPSP Palm Springs Intl
United States
More flights between these airports :: More routes between these airports
Route: JLI TRM
File this flight plan on PilotEdge
Remarks:
Altitude:
(Current/Filed)
9,000ft
Speed:
(Current/Filed)
250kts
Departed: 19-Feb-20 10:33 AM
Arrived: 19-Feb-20 11:06 AM
Distance/Time
Traveled:
1nm/0:33
Distance/Time
To Go:
Arrived

Flight Plot

Page will automatically refresh every two minutes.

Flight plan parsing failed; only flown route is shown


Map Options




Map Legend


Flown Route
Filed Route
Departure Airport
Arrival Airport
Navaid (VOR, NDB)
Fix

Horizontal Profiles

Position Reports

Time Latitude Longitude Heading Altitude Ground
Speed
19-Feb-20 10:10 32.732420 -117.176641 193 18ft 0kts
19-Feb-20 10:11 32.732420 -117.176641 193 18ft 0kts
19-Feb-20 10:12 32.732420 -117.176641 193 18ft 0kts
19-Feb-20 10:13 32.732420 -117.176641 193 18ft 0kts
19-Feb-20 10:14 32.732420 -117.176641 193 18ft 0kts
19-Feb-20 10:15 32.732420 -117.176641 193 18ft 0kts
19-Feb-20 10:16 32.732420 -117.176641 193 18ft 0kts
19-Feb-20 10:17 32.732420 -117.176641 193 18ft 0kts
19-Feb-20 10:18 32.732420 -117.176641 193 18ft 0kts
19-Feb-20 10:19 32.732420 -117.176641 193 18ft 0kts
19-Feb-20 10:20 32.732420 -117.176641 193 18ft 0kts
19-Feb-20 10:21 32.732420 -117.176641 193 18ft 0kts
19-Feb-20 10:22 32.732420 -117.176641 193 18ft 0kts
19-Feb-20 10:23 32.732420 -117.176641 193 18ft 0kts
19-Feb-20 10:24 32.732420 -117.176641 193 18ft 0kts
19-Feb-20 10:25 32.732420 -117.176641 193 18ft 0kts
19-Feb-20 10:26 32.732420 -117.176641 193 18ft 0kts
19-Feb-20 10:27 32.731613 -117.176376 158 18ft 13kts
19-Feb-20 10:28 32.730884 -117.175433 142 18ft 0kts
19-Feb-20 10:29 32.730884 -117.175433 142 18ft 0kts
19-Feb-20 10:30 32.730884 -117.175433 142 18ft 0kts
19-Feb-20 10:31 32.730178 -117.175449 247 18ft 9kts
19-Feb-20 10:32 32.734362 -117.194228 285 483ft 123kts
19-Feb-20 10:33 32.744170 -117.235440 286 2135ft 128kts
19-Feb-20 10:34 32.756252 -117.284848 286 3870ft 160kts
19-Feb-20 10:35 32.768372 -117.336791 264 5926ft 157kts
19-Feb-20 10:36 32.732293 -117.350099 181 7827ft 159kts
19-Feb-20 10:37 32.684125 -117.347905 181 9010ft 200kts
19-Feb-20 10:38 32.655334 -117.291591 81 8990ft 260kts
19-Feb-20 10:39 32.664583 -117.204077 81 8978ft 268kts
19-Feb-20 10:40 32.674286 -117.114927 69 8967ft 265kts
19-Feb-20 10:41 32.725829 -117.056205 40 8982ft 258kts
19-Feb-20 10:42 32.778401 -116.997297 40 8984ft 258kts
19-Feb-20 10:43 32.831074 -116.937766 40 8986ft 259kts
19-Feb-20 10:44 32.883856 -116.877995 40 8981ft 259kts
19-Feb-20 10:45 32.936061 -116.818779 40 8975ft 259kts
19-Feb-20 10:46 32.988306 -116.759419 40 8972ft 259kts
19-Feb-20 10:47 33.040552 -116.699950 41 8972ft 260kts
19-Feb-20 10:48 33.092902 -116.640260 41 8972ft 260kts
19-Feb-20 10:49 33.146573 -116.580634 33 8969ft 260kts
19-Feb-20 10:50 33.206327 -116.528778 33 8960ft 260kts
19-Feb-20 10:51 33.264459 -116.478247 33 8938ft 261kts
19-Feb-20 10:52 33.323237 -116.427065 33 8917ft 261kts
19-Feb-20 10:53 33.381975 -116.375831 33 8909ft 261kts
19-Feb-20 10:54 33.441300 -116.323995 34 8907ft 260kts
19-Feb-20 10:55 33.500637 -116.272061 34 8907ft 260kts
19-Feb-20 10:56 33.559236 -116.220683 34 8908ft 260kts
19-Feb-20 10:57 33.619687 -116.174126 3 8795ft 258kts
19-Feb-20 10:58 33.668489 -116.229358 304 7295ft 261kts
19-Feb-20 10:59 33.708880 -116.298670 305 6966ft 236kts
19-Feb-20 11:00 33.744041 -116.360488 300 5650ft 199kts
19-Feb-20 11:01 33.758075 -116.407277 291 4334ft 100kts
19-Feb-20 11:02 33.769442 -116.439592 297 3456ft 115kts
19-Feb-20 11:04 33.788064 -116.470769 322 1633ft 108kts
19-Feb-20 11:05 33.810995 -116.491029 323 670ft 90kts
19-Feb-20 11:06 33.827474 -116.505700 323 425ft 31kts
19-Feb-20 11:07 33.828836 -116.508309 259 425ft 10kts
19-Feb-20 11:08 33.826091 -116.506882 205 425ft 1kts
19-Feb-20 11:09 33.825223 -116.508136 82 425ft 0kts
19-Feb-20 11:10 33.825223 -116.508136 82 425ft 0kts
19-Feb-20 11:11 33.825223 -116.508136 82 425ft 0kts
19-Feb-20 11:19 32.732420 -117.176641 193 18ft 0kts
19-Feb-20 11:20 32.732420 -117.176641 193 18ft 0kts

Navigation Log

Ident Type
Flight plan parsing failed, navigation log unavailable